Peace River Airport
CYPE : rendu visible

Aérodrome :











RETROUVEZ-NOUS SUR...

 
LOGIN :

S'inscrire | Disclaimer

   EN    FR    IT 

 









Légende :    VFR   VFR Marginal   IFR   IFR Intensif   IFR Très Intensif
Visi : 
Plafond : 
>= 8 km
>= 3000ft
5 à 8 km
1000 à 3000 ft
1500m à 5 km
500 à 1000 ft
800 à 1500m
200 à 500 ft
< 800m
< 200 ft
Symboles :   Orages  Brouillard  Fortes neiges  Fortes précipitations  Vent > 20 kt






- Altitude de l'aérodrome : 1873 ft
- Code IATA : YPE


CYPE - Peace River

DERNIER METAR :
  • 310600Z 09004KT 15SM -SHRA FEW060CB OVC100 17/11 A2967 RMK CB1AC7 SLP051 DENSITY ALT 2800FT

METARs EXPIRÉS :
  • 310500Z 06010KT 15SM -SHRA SCT060CB OVC095 19/09 A2967 RMK CB3AC5 CB W MOVG ENE SLP050 DENSITY ALT 3100FT
  • 310430Z 09010G17KT 15SM -SHRA SCT060CB BKN100 OVC250 20/07 A2967 RMK CB4AC3CI1 CB SW SLP051 DENSITY ALT 3200FT

TAF TAF CYPE
Valide du 31 à 07h jusqu'au 31 à 19h UTC


310638Z 3107/3119 08010KT P6SM -SHRA FEW060 OVC100
FM310900 08010KT P6SM OVC100
TEMPO 3109/3117 P6SM -SHRA
FM311700 VRB03KT P6SM -SHRA BKN040
PROB30 3117/3119 VRB30G40KT 3SM TSRA BKN020CB RMK NXT FCST BY 311300Z
FIR CZEG / Amérique du Nord



MET'MAP, la Météo Aéronautique d'un coup d'oeil ! - Copyright ORBIFLY Décembre 2007 - Disclaimer

ORBIFLY MET'MAP TEAM :

Programmation & Développement : Alexandra Zaïnal
Sur une idée originale de : Baudouin d'Aumeries
Assistance à la programmation : Marc-Olivier Méhu
Soutien technique & logistique : Manuel Goepfert

Contact : metmap@orbifly.com




SOURCES & CREDITS :

   NOAA       Earth
Advisory